Time;durP1;ratioP1;P1;durP2;ratioP2;P2;SDS_P1;SDS_P2;PMS_P1;PMS_P2;Temp;Humidity;BMP_temperature;BMP_pressure;BME280_temperature;BME280_humidity;BME280_pressure;Samples;Min_cycle;Max_cycle;Signal;HPM_P1;HPM_P2
2021/12/24 00:00:58;;;;;;;15.32;6.88;;;;;;;3.27;59.27;92236.28;2071010;69;20694;-70
2021/12/24 00:03:24;;;;;;;11.70;5.85;;;;;;;3.12;59.71;92256.66;2071064;69;20183;-71
2021/12/24 00:05:49;;;;;;;11.68;6.00;;;;;;;3.19;59.55;92243.97;2070855;69;20163;-72
2021/12/24 00:08:15;;;;;;;11.48;5.78;;;;;;;3.38;58.87;92243.38;2071227;69;20617;-70
2021/12/24 00:10:43;;;;;;;11.13;5.45;;;;;;;2.89;60.46;92259.69;2070936;69;20140;-72
2021/12/24 00:13:13;;;;;;;13.77;5.60;;;;;;;2.76;61.50;92257.97;2067624;69;20128;-71
2021/12/24 00:37:16;;;;;;;11.85;5.72;;;;;;;3.32;59.49;92218.59;2061789;69;20200;-77
2021/12/24 00:40:05;;;;;;;11.30;4.85;;;;;;;3.34;58.95;92221.50;2064311;69;20149;-75
2021/12/24 00:42:29;;;;;;;12.20;5.28;;;;;;;3.20;60.22;92231.53;2068055;69;20527;-74
2021/12/24 00:44:55;;;;;;;10.75;5.07;;;;;;;3.33;59.27;92236.00;2067505;69;20141;-71
2021/12/24 00:47:21;;;;;;;10.30;5.47;;;;;;;3.20;60.19;92232.25;2067690;69;20184;-72
2021/12/24 00:49:47;;;;;;;14.05;5.78;;;;;;;3.13;60.49;92210.84;2063739;69;20152;-69
2021/12/24 00:55:06;;;;;;;12.73;6.57;;;;;;;2.86;61.01;92216.34;2068339;69;20141;-71
2021/12/24 00:57:36;;;;;;;11.50;5.78;;;;;;;2.97;60.48;92209.53;2067152;69;20288;-69
2021/12/24 01:00:05;;;;;;;14.35;6.40;;;;;;;2.91;60.71;92228.53;2071172;69;20152;-70
2021/12/24 01:02:31;;;;;;;15.07;6.82;;;;;;;2.77;61.16;92208.66;2070964;69;20218;-68
2021/12/24 01:04:57;;;;;;;13.25;6.90;;;;;;;2.96;60.63;92189.34;2071269;69;20523;-69
2021/12/24 01:07:22;;;;;;;47.53;19.77;;;;;;;2.51;62.38;92223.91;2070952;69;20143;-72
2021/12/24 01:09:48;;;;;;;22.38;10.68;;;;;;;2.81;61.20;92220.09;2067499;69;20144;-72
2021/12/24 01:12:14;;;;;;;25.40;11.70;;;;;;;2.76;61.16;92205.16;2067934;69;20206;-70
2021/12/24 01:14:40;;;;;;;36.40;16.88;;;;;;;2.17;62.84;92213.50;2067023;69;20235;-74
2021/12/24 01:19:32;;;;;;;30.02;13.88;;;;;;;2.38;61.96;92211.06;2067664;69;20141;-71
2021/12/24 01:24:36;;;;;;;24.92;12.30;;;;;;;2.54;61.34;92195.00;2071163;69;20140;-68
2021/12/24 01:37:47;;;;;;;21.00;10.18;;;;;;;2.17;62.35;92202.38;2066163;69;20160;-70
2021/12/24 01:44:47;;;;;;;20.25;9.55;;;;;;;2.35;60.66;92209.44;2046130;70;20158;-69
2021/12/24 01:47:12;;;;;;;15.60;8.85;;;;;;;1.97;62.39;92229.94;2054443;69;20163;-69
2021/12/24 01:49:38;;;;;;;16.85;8.27;;;;;;;2.03;62.58;92218.59;2059252;69;20200;-68
2021/12/24 01:52:07;;;;;;;20.35;8.07;;;;;;;2.04;62.10;92229.13;2066832;69;20623;-70
2021/12/24 01:54:36;;;;;;;19.30;9.10;;;;;;;1.70;63.27;92240.84;2067308;69;20164;-70
2021/12/24 01:57:03;;;;;;;19.65;9.60;;;;;;;1.70;63.06;92240.84;2067844;69;20531;-70
2021/12/24 01:59:29;;;;;;;20.30;8.77;;;;;;;1.90;63.09;92230.00;2067757;69;20231;-71
2021/12/24 02:01:55;;;;;;;17.92;8.25;;;;;;;2.07;61.63;92201.56;2067583;69;20669;-74
2021/12/24 02:04:21;;;;;;;17.63;7.82;;;;;;;1.59;63.47;92218.34;2070179;69;20156;-71
2021/12/24 02:06:48;;;;;;;16.73;7.90;;;;;;;1.64;63.32;92220.91;2067078;69;20160;-70
2021/12/24 02:09:14;;;;;;;17.75;7.93;;;;;;;1.91;62.75;92201.66;2070313;69;20159;-72
2021/12/24 02:11:41;;;;;;;15.10;7.40;;;;;;;1.99;61.52;92199.56;2067478;69;20149;-70
2021/12/24 02:14:12;;;;;;;10.88;5.47;;;;;;;2.15;61.67;92193.88;2071023;69;20136;-70
2021/12/24 02:17:07;;;;;;;9.70;5.10;;;;;;;1.99;61.95;92187.72;2067414;69;20217;-69
2021/12/24 02:30:30;;;;;;;12.32;6.30;;;;;;;1.75;63.10;92206.59;2067396;69;20596;-69
2021/12/24 02:32:55;;;;;;;22.05;9.70;;;;;;;1.43;64.07;92190.72;2067054;69;20168;-70
2021/12/24 02:35:21;;;;;;;17.80;8.65;;;;;;;1.68;63.08;92199.03;2066885;69;21057;-71
2021/12/24 02:37:48;;;;;;;18.70;9.65;;;;;;;1.72;63.06;92195.88;2067033;69;20614;-74
2021/12/24 02:40:14;;;;;;;17.67;10.82;;;;;;;1.73;62.77;92200.84;2071283;69;20180;-73
2021/12/24 02:42:40;;;;;;;15.32;7.60;;;;;;;1.74;62.99;92198.81;2067789;69;20290;-75
2021/12/24 02:45:07;;;;;;;12.38;6.53;;;;;;;1.65;62.98;92199.44;2064780;69;20510;-70
2021/12/24 02:47:54;;;;;;;12.50;7.07;;;;;;;1.76;62.68;92202.50;2067567;69;20153;-69
2021/12/24 02:55:31;;;;;;;16.95;8.13;;;;;;;1.50;64.17;92194.72;2067951;69;20187;-69
2021/12/24 02:57:57;;;;;;;16.85;8.35;;;;;;;1.63;63.48;92177.81;2071221;69;20137;-71
2021/12/24 03:00:27;;;;;;;13.27;7.03;;;;;;;1.78;62.83;92180.47;2068044;69;20148;-72
2021/12/24 03:02:57;;;;;;;14.65;7.35;;;;;;;1.64;63.37;92170.94;2065257;69;20251;-70
2021/12/24 03:05:25;;;;;;;12.13;5.80;;;;;;;1.63;63.18;92155.63;2070494;69;20152;-73
2021/12/24 03:07:51;;;;;;;12.82;6.57;;;;;;;1.72;62.62;92148.72;2067359;69;20180;-76
2021/12/24 03:10:19;;;;;;;10.60;5.60;;;;;;;1.71;62.53;92147.97;2067120;69;20151;-71
2021/12/24 03:12:48;;;;;;;12.68;5.85;;;;;;;1.64;62.13;92139.69;2067859;69;20148;-71
2021/12/24 03:15:16;;;;;;;11.25;6.07;;;;;;;1.41;63.30;92140.59;2068107;69;20201;-69
2021/12/24 03:17:47;;;;;;;11.73;6.32;;;;;;;1.42;63.78;92144.09;2067757;69;20160;-69
2021/12/24 03:20:13;;;;;;;11.53;6.20;;;;;;;1.41;63.68;92139.88;2067926;69;20594;-71
2021/12/24 03:25:05;;;;;;;11.80;6.57;;;;;;;1.19;64.33;92164.41;2071639;69;20515;-70
2021/12/24 03:27:31;;;;;;;10.95;5.93;;;;;;;1.39;64.29;92145.25;2071148;69;20196;-70
2021/12/24 03:29:57;;;;;;;10.70;5.85;;;;;;;0.76;66.37;92157.22;2071269;69;20232;-70
2021/12/24 03:32:25;;;;;;;9.45;5.38;;;;;;;1.23;65.49;92150.88;2067954;69;20147;-73
2021/12/24 03:34:52;;;;;;;10.93;5.40;;;;;;;1.31;64.37;92161.94;2067978;69;20250;-71
2021/12/24 03:37:18;;;;;;;12.35;5.75;;;;;;;1.26;64.47;92169.16;2071439;69;20774;-75
2021/12/24 03:39:44;;;;;;;9.40;5.60;;;;;;;1.30;64.05;92145.88;2068042;69;20136;-75
2021/12/24 03:42:10;;;;;;;8.43;4.82;;;;;;;1.08;65.17;92155.78;2068118;69;20144;-71
2021/12/24 03:44:42;;;;;;;9.77;4.95;;;;;;;1.23;64.87;92152.91;2067833;69;20183;-71
2021/12/24 03:47:14;;;;;;;10.65;4.63;;;;;;;1.16;65.00;92143.34;2067282;69;20234;-70
2021/12/24 03:54:59;;;;;;;8.90;4.70;;;;;;;1.34;64.57;92115.72;2067426;69;20184;-72
2021/12/24 03:57:34;;;;;;;8.07;4.47;;;;;;;1.36;63.99;92110.31;2067338;69;20151;-70
2021/12/24 04:00:32;;;;;;;7.50;3.97;;;;;;;1.35;63.73;92101.25;2062616;69;20665;-71
2021/12/24 04:03:18;;;;;;;9.65;4.60;;;;;;;1.09;65.53;92101.81;2071322;69;20268;-70
2021/12/24 04:05:44;;;;;;;8.63;4.30;;;;;;;1.16;65.30;92101.03;2071478;69;20183;-71
2021/12/24 04:08:23;;;;;;;13.30;5.80;;;;;;;1.24;64.81;92101.72;2071750;69;20140;-73
2021/12/24 04:11:07;;;;;;;9.75;4.93;;;;;;;1.07;64.73;92096.84;2068351;69;20160;-71
2021/12/24 04:13:36;;;;;;;9.50;5.68;;;;;;;0.80;66.26;92093.13;2068465;69;20216;-72
2021/12/24 04:16:03;;;;;;;10.10;5.65;;;;;;;0.88;65.43;92102.13;2068445;69;20616;-71
2021/12/24 04:26:25;;;;;;;14.52;5.15;;;;;;;0.92;64.65;92078.28;2068489;69;20144;-70
2021/12/24 04:28:52;;;;;;;10.63;5.55;;;;;;;0.44;66.54;92088.66;2068498;69;20254;-70
2021/12/24 04:31:21;;;;;;;9.02;5.68;;;;;;;0.75;65.21;92092.03;2071819;69;20247;-70
2021/12/24 04:33:51;;;;;;;7.97;5.00;;;;;;;0.62;65.38;92092.28;2068455;69;20156;-71
2021/12/24 05:03:30;;;;;;;8.38;4.50;;;;;;;0.79;66.46;92075.03;2066845;69;20216;-71
2021/12/24 05:06:50;;;;;;;11.57;3.90;;;;;;;0.89;65.55;92073.84;2068258;69;20178;-70
2021/12/24 05:08:54;;;;;;;7.45;4.57;;;;;;;0.88;65.60;92072.38;2064305;69;20183;-70
2021/12/24 05:11:22;;;;;;;13.93;8.77;;;;;;;1.02;65.02;92061.75;2065021;69;20171;-71
2021/12/24 05:13:49;;;;;;;9.77;5.80;;;;;;;0.94;65.21;92061.06;2064962;69;20155;-71
2021/12/24 05:16:43;;;;;;;9.18;6.10;;;;;;;1.01;65.79;92068.59;2065138;69;20159;-75
2021/12/24 05:22:09;;;;;;;7.65;4.85;;;;;;;1.22;65.39;92057.19;2068672;69;20148;-75
2021/12/24 05:24:37;;;;;;;13.57;7.93;;;;;;;0.30;68.47;92062.50;2065033;69;20685;-75
2021/12/24 05:27:03;;;;;;;15.98;8.30;;;;;;;0.76;66.97;92066.53;2065041;69;20141;-76
2021/12/24 05:29:31;;;;;;;15.52;7.93;;;;;;;0.87;66.24;92059.81;2068309;69;20239;-73
2021/12/24 05:31:56;;;;;;;16.30;7.95;;;;;;;0.76;67.59;92068.56;2064993;69;20653;-77
2021/12/24 05:34:22;;;;;;;13.68;7.28;;;;;;;1.02;66.14;92054.19;2064994;69;20145;-75
2021/12/24 05:36:50;;;;;;;11.70;6.43;;;;;;;0.95;66.58;92057.00;2065142;69;20243;-75
2021/12/24 05:39:17;;;;;;;15.70;7.65;;;;;;;0.98;66.33;92061.41;2064944;69;20133;-72
2021/12/24 05:41:45;;;;;;;17.17;9.15;;;;;;;1.02;66.00;92067.31;2064969;69;20236;-69
2021/12/24 05:44:15;;;;;;;20.92;11.43;;;;;;;1.07;65.81;92057.28;2064998;69;20255;-73
2021/12/24 05:46:45;;;;;;;;;;;;;;;1.14;65.46;92053.72;2067965;69;20152;-72
2021/12/24 05:49:19;;;;;;;22.27;9.93;;;;;;;0.90;66.81;92064.22;2064842;69;20460;-73
2021/12/24 05:52:04;;;;;;;32.58;13.13;;;;;;;1.03;66.61;92057.69;2068228;69;20156;-73
2021/12/24 05:54:35;;;;;;;28.90;13.30;;;;;;;1.04;66.42;92053.59;2064983;69;20222;-73
2021/12/24 05:57:01;;;;;;;21.95;10.18;;;;;;;1.16;65.59;92065.00;2064910;69;20195;-72
2021/12/24 05:59:26;;;;;;;22.85;9.70;;;;;;;1.17;66.50;92058.13;2068322;69;20532;-73
2021/12/24 06:01:52;;;;;;;10.65;5.50;;;;;;;1.25;66.59;92053.28;2064909;69;20519;-76
2021/12/24 06:04:18;;;;;;;10.00;5.13;;;;;;;0.92;70.04;92064.41;2068243;69;20148;-74
2021/12/24 06:06:43;;;;;;;13.85;7.00;;;;;;;1.18;67.43;92062.38;2062125;69;20172;-75
2021/12/24 06:09:09;;;;;;;14.35;8.32;;;;;;;1.30;66.46;92034.94;2068291;69;20226;-75
2021/12/24 06:11:34;;;;;;;16.65;7.63;;;;;;;0.72;68.72;92048.81;2068219;69;20140;-73
2021/12/24 06:14:08;;;;;;;14.70;6.57;;;;;;;0.87;68.50;92050.75;2068410;69;20151;-75
2021/12/24 06:16:35;;;;;;;15.60;6.75;;;;;;;1.20;67.00;92040.38;2068289;69;20139;-74
2021/12/24 06:19:02;;;;;;;12.13;5.88;;;;;;;1.34;66.56;92033.25;2068229;69;20601;-77
2021/12/24 06:21:27;;;;;;;11.10;5.82;;;;;;;1.24;67.07;92027.59;2068361;69;20210;-69
2021/12/24 06:23:53;;;;;;;16.02;8.77;;;;;;;0.83;68.51;92042.13;2068338;69;20164;-71
2021/12/24 06:26:19;;;;;;;15.55;8.68;;;;;;;1.08;67.14;92045.63;2068792;69;20221;-73
2021/12/24 06:28:45;;;;;;;20.13;10.73;;;;;;;1.19;66.47;92030.56;2068739;69;20505;-76
2021/12/24 06:31:10;;;;;;;15.48;8.07;;;;;;;1.14;66.98;92045.41;2065392;69;20223;-76
2021/12/24 06:33:36;;;;;;;16.27;9.05;;;;;;;1.09;67.32;92057.44;2068656;69;20141;-76
2021/12/24 06:36:03;;;;;;;16.08;9.00;;;;;;;1.07;67.40;92044.16;2068914;69;20587;-75
2021/12/24 06:38:29;;;;;;;18.38;8.65;;;;;;;1.12;67.11;92059.09;2070147;69;20247;-76
2021/12/24 06:40:55;;;;;;;14.02;8.48;;;;;;;1.23;66.28;92069.72;2070643;69;20149;-72
2021/12/24 06:43:21;;;;;;;18.55;8.85;;;;;;;1.17;66.54;92069.22;2071962;69;20202;-76
2021/12/24 06:45:49;;;;;;;20.05;10.77;;;;;;;1.21;66.39;92066.81;2071709;69;20148;-77
2021/12/24 06:48:14;;;;;;;27.08;11.40;;;;;;;1.04;67.48;92069.50;2072203;69;20159;-77
2021/12/24 06:50:40;;;;;;;43.90;22.65;;;;;;;0.80;68.47;92071.69;2071922;69;20140;-70
2021/12/24 06:53:06;;;;;;;38.50;18.88;;;;;;;1.14;66.43;92062.03;2068811;69;20147;-71
2021/12/24 06:55:32;;;;;;;38.65;18.70;;;;;;;1.08;66.69;92073.34;2072060;69;20168;-71
2021/12/24 06:58:09;;;;;;;35.90;17.70;;;;;;;1.16;67.03;92062.22;2068837;69;20163;-71
2021/12/24 07:00:36;;;;;;;23.60;11.93;;;;;;;1.25;66.36;92053.28;2068230;69;20144;-71
2021/12/24 07:03:05;;;;;;;23.13;11.88;;;;;;;0.98;68.03;92061.41;2068621;69;20148;-75
2021/12/24 07:05:30;;;;;;;36.90;16.92;;;;;;;1.11;67.82;92061.16;2071802;69;20163;-76
2021/12/24 07:07:56;;;;;;;34.17;16.15;;;;;;;1.25;66.91;92058.81;2072156;69;20574;-72
2021/12/24 07:10:22;;;;;;;25.30;12.95;;;;;;;1.37;66.52;92061.88;2071978;69;20137;-73
2021/12/24 07:12:47;;;;;;;25.17;12.40;;;;;;;1.37;66.71;92057.03;2072015;69;20152;-77
2021/12/24 07:15:16;;;;;;;27.55;13.23;;;;;;;1.34;65.80;92060.97;2068582;69;20144;-77
2021/12/24 07:17:42;;;;;;;31.80;14.75;;;;;;;1.34;66.64;92043.59;2068615;69;20528;-77
2021/12/24 07:20:08;;;;;;;29.35;13.68;;;;;;;1.34;66.63;92052.66;2071864;69;20146;-75
2021/12/24 07:22:34;;;;;;;41.92;19.65;;;;;;;1.19;67.39;92056.28;2072044;69;20144;-74
2021/12/24 07:24:59;;;;;;;38.75;17.83;;;;;;;1.39;66.60;92050.94;2072101;69;20156;-70
2021/12/24 07:27:25;;;;;;;29.52;14.00;;;;;;;1.39;66.74;92043.38;2071914;69;20144;-70
2021/12/24 07:29:51;;;;;;;25.45;12.75;;;;;;;1.27;67.88;92050.66;2071511;69;20144;-70
2021/12/24 07:32:16;;;;;;;22.80;11.48;;;;;;;1.43;67.57;92065.91;2071951;69;20147;-70
2021/12/24 07:34:42;;;;;;;18.17;8.98;;;;;;;1.50;67.62;92053.97;2071768;69;20203;-73
2021/12/24 07:37:08;;;;;;;30.25;14.88;;;;;;;1.43;68.00;92059.63;2071919;69;20152;-75
2021/12/24 07:39:33;;;;;;;38.75;16.77;;;;;;;1.34;68.17;92065.78;2071849;69;20203;-75
2021/12/24 07:41:59;;;;;;;36.72;19.08;;;;;;;1.50;67.47;92056.03;2071926;69;20144;-76
2021/12/24 07:44:25;;;;;;;42.38;19.85;;;;;;;1.36;67.90;92058.34;2072024;69;20148;-76
2021/12/24 07:46:55;;;;;;;40.95;21.08;;;;;;;1.57;67.23;92058.00;2071952;69;20237;-74
2021/12/24 07:54:28;;;;;;;42.53;21.95;;;;;;;1.68;66.96;92035.31;2071921;69;20603;-78
2021/12/24 07:56:55;;;;;;;45.00;22.23;;;;;;;1.76;67.35;92033.22;2071787;69;20205;-70
2021/12/24 07:59:21;;;;;;;40.20;21.02;;;;;;;1.75;67.81;92026.22;2071862;69;20630;-70
2021/12/24 08:01:47;;;;;;;41.00;21.05;;;;;;;1.87;67.80;92018.13;2071608;69;20144;-69
2021/12/24 08:04:14;;;;;;;39.40;22.17;;;;;;;2.02;66.07;92014.47;2068405;69;20184;-69
2021/12/24 08:06:40;;;;;;;36.05;20.02;;;;;;;1.99;67.85;92010.78;2071653;69;20596;-69
2021/12/24 08:09:07;;;;;;;30.73;18.35;;;;;;;1.95;67.80;92004.91;2071560;69;20152;-76
2021/12/24 08:11:36;;;;;;;27.73;14.60;;;;;;;1.98;68.59;92006.53;2071845;69;20159;-74
2021/12/24 08:14:05;;;;;;;27.35;16.00;;;;;;;1.89;68.90;92003.69;2071823;69;20241;-76
2021/12/24 08:16:31;;;;;;;29.13;16.77;;;;;;;2.14;66.85;92003.59;2071983;69;20163;-75
2021/12/24 08:18:58;;;;;;;27.52;14.82;;;;;;;2.33;67.10;92000.19;2071838;69;20144;-76
2021/12/24 08:21:24;;;;;;;42.17;24.48;;;;;;;1.81;69.31;92017.63;2071751;69;20533;-75
2021/12/24 08:23:50;;;;;;;41.38;23.25;;;;;;;2.33;67.68;92006.50;2071573;69;20152;-78
2021/12/24 08:26:17;;;;;;;39.70;22.17;;;;;;;2.34;67.63;92012.78;2071835;69;20771;-77
2021/12/24 08:28:42;;;;;;;41.63;24.80;;;;;;;2.01;68.65;92013.72;2071592;69;20148;-69
2021/12/24 08:31:09;;;;;;;44.90;25.63;;;;;;;2.35;67.39;92003.88;2071834;69;20148;-70
2021/12/24 08:33:35;;;;;;;37.97;23.60;;;;;;;2.47;66.84;91987.44;2071516;69;20202;-70
2021/12/24 08:36:03;;;;;;;33.55;20.13;;;;;;;2.62;66.40;91987.25;2071702;69;20594;-71
2021/12/24 08:38:29;;;;;;;38.80;22.23;;;;;;;2.57;66.64;91998.59;2071847;69;20170;-75
2021/12/24 08:40:55;;;;;;;35.08;21.13;;;;;;;2.81;66.41;91997.72;2071946;69;20149;-69
2021/12/24 08:43:21;;;;;;;39.80;22.70;;;;;;;2.80;67.16;91994.22;2071790;69;20151;-76
2021/12/24 08:45:46;;;;;;;38.28;23.45;;;;;;;2.85;65.92;91997.31;2071451;69;20141;-75
2021/12/24 08:48:12;;;;;;;40.03;22.63;;;;;;;2.72;66.72;91996.34;2071551;69;20581;-76
2021/12/24 08:50:39;;;;;;;40.55;22.98;;;;;;;2.94;66.46;91993.84;2070461;69;20154;-76
2021/12/24 08:53:07;;;;;;;38.28;22.17;;;;;;;3.12;66.75;91991.72;2071740;69;20226;-71
2021/12/24 08:55:38;;;;;;;41.78;24.42;;;;;;;3.19;65.38;91991.59;2064874;69;20207;-75
2021/12/24 08:58:04;;;;;;;49.53;28.77;;;;;;;3.09;65.73;91978.97;2071722;69;20159;-74
2021/12/24 09:00:31;;;;;;;52.25;29.73;;;;;;;3.29;66.31;91980.47;2073663;69;20316;-70
2021/12/24 09:02:57;;;;;;;59.25;31.27;;;;;;;3.47;66.43;91973.50;2071312;69;20179;-72
2021/12/24 09:05:23;;;;;;;61.03;32.40;;;;;;;3.70;66.46;91966.81;2071479;69;20232;-74
2021/12/24 09:07:50;;;;;;;50.83;27.70;;;;;;;3.98;65.01;91977.22;2071696;69;20148;-70
2021/12/24 09:10:17;;;;;;;43.78;24.58;;;;;;;4.07;64.48;91979.28;2071670;69;20136;-71
2021/12/24 09:12:43;;;;;;;42.85;24.20;;;;;;;4.26;64.10;91986.16;2071704;69;20156;-72
2021/12/24 09:15:12;;;;;;;50.15;25.25;;;;;;;3.96;64.36;91993.78;2070823;69;20289;-71
2021/12/24 09:17:44;;;;;;;59.60;28.65;;;;;;;4.07;64.16;91990.41;2071473;69;20492;-76
2021/12/24 09:20:13;;;;;;;50.13;25.73;;;;;;;4.28;64.25;91989.09;2071000;69;20615;-75
2021/12/24 09:22:40;;;;;;;50.67;26.08;;;;;;;4.43;64.00;91979.69;2070919;69;20162;-72
2021/12/24 09:25:06;;;;;;;49.28;26.80;;;;;;;4.48;63.30;91973.81;2067784;69;20616;-79
2021/12/24 09:27:32;;;;;;;47.92;25.05;;;;;;;4.64;63.34;91962.38;2071157;69;20262;-77
2021/12/24 09:29:58;;;;;;;52.33;26.75;;;;;;;4.72;62.94;91957.34;2071886;69;20152;-76
2021/12/24 09:32:25;;;;;;;47.10;25.85;;;;;;;4.65;62.59;91952.69;2071809;69;20156;-73
2021/12/24 09:34:51;;;;;;;46.72;23.98;;;;;;;4.04;63.35;91955.41;2071585;69;20144;-70
2021/12/24 09:37:17;;;;;;;45.70;24.92;;;;;;;4.27;63.62;91954.22;2071719;69;20667;-70
2021/12/24 09:39:43;;;;;;;49.70;27.50;;;;;;;4.50;62.61;91937.75;2071688;69;20251;-71
2021/12/24 09:42:09;;;;;;;51.22;27.05;;;;;;;4.66;62.00;91946.50;2071791;69;20231;-70
2021/12/24 09:44:35;;;;;;;51.38;28.23;;;;;;;4.00;63.04;91963.47;2071658;69;20159;-71
2021/12/24 09:47:01;;;;;;;45.95;23.27;;;;;;;4.28;62.41;91945.25;2071667;69;20144;-70
2021/12/24 09:49:27;;;;;;;47.22;22.38;;;;;;;4.56;61.99;91945.78;2071446;69;20140;-70
2021/12/24 09:51:53;;;;;;;37.97;20.77;;;;;;;4.52;62.12;91945.50;2071673;69;20260;-77
2021/12/24 09:54:22;;;;;;;40.85;20.75;;;;;;;4.67;61.79;91947.97;2068293;69;20144;-75
2021/12/24 09:56:49;;;;;;;36.67;21.20;;;;;;;4.74;61.85;91940.75;2071585;69;20156;-73
2021/12/24 09:59:15;;;;;;;37.58;21.23;;;;;;;4.47;62.26;91946.56;2071612;69;20211;-75
2021/12/24 10:01:49;;;;;;;38.92;22.48;;;;;;;4.79;61.91;91928.56;2071624;69;20140;-77
2021/12/24 10:04:17;;;;;;;37.05;19.95;;;;;;;4.81;62.11;91925.91;2071526;69;20219;-71
2021/12/24 10:07:04;;;;;;;39.30;21.88;;;;;;;4.64;62.67;91940.06;2071405;69;20243;-73
2021/12/24 10:09:31;;;;;;;36.58;20.52;;;;;;;5.12;62.28;91925.94;2071524;69;20139;-72
2021/12/24 10:12:00;;;;;;;37.08;20.20;;;;;;;5.44;61.90;91926.66;2071598;69;20659;-71
2021/12/24 10:14:33;;;;;;;35.15;19.40;;;;;;;5.67;60.25;91917.69;2071600;69;20184;-70
2021/12/24 10:17:00;;;;;;;32.15;18.98;;;;;;;6.05;60.04;91914.66;2071604;69;20236;-70
2021/12/24 10:19:26;;;;;;;35.63;20.40;;;;;;;5.31;60.36;91923.06;2071510;69;20160;-73
2021/12/24 10:22:01;;;;;;;38.88;21.08;;;;;;;5.94;60.48;91909.72;2071573;69;20160;-70
2021/12/24 10:24:27;;;;;;;29.40;18.52;;;;;;;6.30;58.91;91894.56;2071575;69;20637;-71
2021/12/24 10:26:56;;;;;;;36.13;20.88;;;;;;;6.46;57.88;91908.84;2071642;69;20145;-71
2021/12/24 10:29:34;;;;;;;37.97;20.52;;;;;;;6.76;58.40;91906.47;2071521;69;20171;-71
2021/12/24 10:32:10;;;;;;;31.23;19.23;;;;;;;7.00;56.72;91891.16;2070390;69;20145;-71
2021/12/24 10:34:37;;;;;;;31.65;20.67;;;;;;;6.78;56.63;91892.59;2069546;69;20211;-69
2021/12/24 10:37:09;;;;;;;27.63;17.38;;;;;;;6.98;56.27;91890.31;2070368;69;20140;-71
2021/12/24 10:39:50;;;;;;;31.42;18.33;;;;;;;7.09;56.49;91889.59;2070124;69;20168;-69
2021/12/24 10:42:20;;;;;;;24.02;15.13;;;;;;;7.30;56.61;91886.66;2070175;69;20575;-70
2021/12/24 10:44:48;;;;;;;28.17;15.60;;;;;;;6.98;55.46;91890.31;2069782;69;20173;-70
2021/12/24 10:47:26;;;;;;;32.70;18.17;;;;;;;7.39;55.62;91899.81;2066572;69;20756;-71
2021/12/24 10:52:43;;;;;;;40.65;24.85;;;;;;;7.00;55.20;91888.34;2070533;69;20164;-70
2021/12/24 10:55:16;;;;;;;35.95;22.45;;;;;;;7.42;54.57;91886.63;2070466;69;20167;-72
2021/12/24 10:57:46;;;;;;;25.38;15.80;;;;;;;7.90;54.02;91891.56;2067351;69;20271;-71
2021/12/24 11:00:29;;;;;;;28.90;17.15;;;;;;;7.99;53.78;91892.03;2070829;69;20175;-74
2021/12/24 11:03:05;;;;;;;24.52;15.60;;;;;;;8.31;53.49;91895.94;2070692;69;20156;-74
2021/12/24 11:05:39;;;;;;;31.80;19.50;;;;;;;7.93;53.82;91886.81;2070122;69;20140;-73
2021/12/24 11:08:11;;;;;;;37.20;23.38;;;;;;;8.11;53.53;91882.22;2064184;69;20622;-74
2021/12/24 11:10:42;;;;;;;72.97;42.50;;;;;;;8.12;52.81;91885.75;2064414;69;20176;-78
2021/12/24 11:13:12;;;;;;;62.78;38.10;;;;;;;8.29;52.90;91878.97;2064840;69;20507;-76
2021/12/24 11:15:44;;;;;;;52.60;30.55;;;;;;;8.33;52.80;91876.41;2064784;69;20191;-75
2021/12/24 11:18:23;;;;;;;54.92;34.65;;;;;;;8.70;52.77;91872.81;2064528;69;20141;-70
2021/12/24 11:20:56;;;;;;;79.32;41.80;;;;;;;7.74;52.81;91873.78;2064351;69;20161;-70
2021/12/24 11:23:24;;;;;;;40.33;24.42;;;;;;;7.89;53.08;91884.50;2064991;69;20166;-70
2021/12/24 11:25:52;;;;;;;44.00;26.40;;;;;;;8.36;52.59;91892.75;2064908;69;20157;-73
2021/12/24 11:28:18;;;;;;;53.50;29.63;;;;;;;8.31;52.57;91893.13;2064926;69;20137;-73
2021/12/24 11:30:49;;;;;;;49.10;27.35;;;;;;;8.54;52.06;91890.22;2064683;69;20187;-70
2021/12/24 11:33:21;;;;;;;39.35;24.23;;;;;;;8.64;51.37;91876.75;2064127;69;20210;-70
2021/12/24 11:35:49;;;;;;;59.42;31.85;;;;;;;8.67;52.07;91882.50;2064778;69;20270;-71
2021/12/24 11:38:21;;;;;;;99.53;49.03;;;;;;;8.68;52.01;91875.53;2065197;69;20157;-70
2021/12/24 11:40:50;;;;;;;82.47;38.28;;;;;;;8.64;51.14;91878.84;2065213;69;20182;-74
2021/12/24 11:43:19;;;;;;;69.03;35.90;;;;;;;8.74;51.46;91876.56;2065242;69;20655;-73
2021/12/24 11:45:45;;;;;;;68.47;33.97;;;;;;;8.28;51.59;91878.25;2064451;69;20129;-70
2021/12/24 11:48:10;;;;;;;57.55;30.80;;;;;;;8.41;51.22;91865.66;2064815;69;20168;-70
2021/12/24 11:50:37;;;;;;;57.58;32.03;;;;;;;8.31;51.42;91868.63;2064917;69;20585;-70
2021/12/24 11:53:09;;;;;;;64.63;36.45;;;;;;;8.13;51.42;91873.94;2065220;69;20251;-78
2021/12/24 11:55:38;;;;;;;39.17;23.00;;;;;;;7.87;52.48;91875.94;2064906;69;20165;-73
2021/12/24 11:58:06;;;;;;;40.70;23.98;;;;;;;7.55;52.81;91872.00;2064999;69;20196;-70
2021/12/24 12:00:37;;;;;;;41.42;24.88;;;;;;;7.92;52.91;91870.59;2064944;69;20200;-70
2021/12/24 12:03:03;;;;;;;37.45;22.20;;;;;;;7.99;52.73;91866.78;2064843;69;20532;-73
2021/12/24 12:05:32;;;;;;;51.75;28.17;;;;;;;7.98;52.42;91860.47;2064638;69;20603;-72
2021/12/24 12:08:25;;;;;;;75.75;49.85;;;;;;;8.08;52.17;91855.44;2064632;69;20240;-73
2021/12/24 12:11:02;;;;;;;54.58;34.20;;;;;;;8.05;51.63;91851.03;2064776;69;20133;-72
2021/12/24 12:13:57;;;;;;;42.53;25.88;;;;;;;7.99;51.85;91852.78;2064671;69;20147;-73
2021/12/24 12:16:43;;;;;;;41.20;24.83;;;;;;;8.12;51.70;91849.31;2064125;69;20160;-76
2021/12/24 12:25:09;;;;;;;48.60;29.35;;;;;;;7.92;52.51;91831.34;2065161;69;20182;-69
2021/12/24 12:27:41;;;;;;;55.83;33.53;;;;;;;7.96;51.91;91828.78;2065112;69;20215;-69
2021/12/24 12:30:22;;;;;;;55.28;33.08;;;;;;;8.13;51.56;91822.75;2064097;69;20141;-69
2021/12/24 12:32:50;;;;;;;70.68;40.80;;;;;;;7.85;51.99;91827.50;2064605;69;20184;-69
2021/12/24 12:35:16;;;;;;;57.65;33.65;;;;;;;7.78;53.36;91820.06;2064707;69;20218;-70
2021/12/24 12:37:59;;;;;;;52.88;30.98;;;;;;;8.00;52.25;91832.53;2064066;69;20172;-75
2021/12/24 12:40:35;;;;;;;54.20;31.17;;;;;;;7.99;52.86;91836.69;2064454;69;20136;-73
2021/12/24 12:43:10;;;;;;;51.90;30.75;;;;;;;7.75;53.54;91835.31;2064536;69;20229;-73
2021/12/24 12:45:36;;;;;;;41.67;25.77;;;;;;;7.80;53.79;91826.53;2064976;69;20239;-77
2021/12/24 12:48:08;;;;;;;43.50;27.63;;;;;;;7.77;53.73;91830.56;2064801;69;20264;-75
2021/12/24 12:50:35;;;;;;;48.58;29.05;;;;;;;7.69;53.70;91829.34;2064308;69;20160;-70
2021/12/24 12:53:41;;;;;;;46.33;28.35;;;;;;;7.67;53.56;91826.44;2064543;69;20215;-72
2021/12/24 12:56:14;;;;;;;48.83;29.77;;;;;;;7.69;54.05;91830.09;2050367;70;20226;-75
2021/12/24 12:58:48;;;;;;;51.72;30.48;;;;;;;7.72;53.67;91828.88;2050694;70;20161;-73
2021/12/24 13:01:21;;;;;;;48.78;28.80;;;;;;;7.72;54.51;91828.13;2050490;70;20571;-75
2021/12/24 13:03:55;;;;;;;45.33;27.83;;;;;;;7.56;53.90;91833.53;2050282;70;20174;-70
2021/12/24 13:06:36;;;;;;;44.92;26.45;;;;;;;7.70;54.43;91828.75;2050348;69;20848;-68
2021/12/24 13:09:10;;;;;;;53.60;30.92;;;;;;;7.60;53.74;91825.34;2050229;70;20467;-71
2021/12/24 13:11:38;;;;;;;51.60;28.67;;;;;;;7.39;54.53;91807.41;2050214;70;20692;-70
2021/12/24 13:14:05;;;;;;;34.85;19.67;;;;;;;7.51;54.57;91801.03;2050165;70;20210;-71
2021/12/24 13:16:47;;;;;;;18.27;10.32;;;;;;;7.51;54.28;91804.56;2047694;70;20567;-70
2021/12/24 13:19:56;;;;;;;56.20;33.88;;;;;;;6.95;54.64;91802.00;2050282;70;20146;-70
2021/12/24 13:22:29;;;;;;;44.80;27.63;;;;;;;7.30;54.35;91801.94;2050156;70;20165;-69
2021/12/24 13:25:00;;;;;;;49.67;30.27;;;;;;;7.56;54.59;91794.31;2050434;70;20321;-73
2021/12/24 13:27:30;;;;;;;44.33;26.52;;;;;;;7.47;54.75;91790.34;2060909;69;20137;-73
2021/12/24 13:30:06;;;;;;;43.05;24.95;;;;;;;7.50;54.57;91786.31;2065001;69;20224;-76
2021/12/24 13:32:38;;;;;;;30.48;15.02;;;;;;;7.62;53.35;91775.06;2064175;69;20164;-70
2021/12/24 13:35:04;;;;;;;16.27;7.85;;;;;;;7.41;53.07;91773.19;2064223;69;20157;-71
2021/12/24 13:37:32;;;;;;;12.75;6.43;;;;;;;7.64;51.76;91775.19;2064545;69;20794;-74
2021/12/24 13:39:57;;;;;;;44.75;23.63;;;;;;;7.39;53.10;91775.88;2064393;69;20510;-70